Main page
METAR-TAF:

METAR-TAF

Airports :

Saint-Étienne–Bouthéon Airport

Saint-Etienne, France

latitude: 45-32N, longitude: 004-18E, elevation: 404 m

Current weather observation

The report was made 26 minutes ago, at 23:30 UTC
Wind 8 kt from the South
Temperature 11°C
Humidity 76%
Pressure 1022 hPa
Visibility 10 km or more
no clouds below 1500 m and no cumulonimbus

METAR: LFMH 282330Z AUTO 18008KT CAVOK 11/07 Q1022

Time: 00:56 (23:56 UTC)

Forecast

The report was made 6 hours and 56 minutes ago, at 17:00 UTC
Forecast valid from 28 at 18 UTC to 29 at 18 UTC
Wind 8 kt from the South/Southwest
Visibility 10 km or more
Broken clouds at a height of 4000 ft
Temporary
from 29 at 10 UTC to 29 at 15 UTC
Wind 6 kt from the West/Northwest

TAF: LFMH 281700Z 2818/2918 20008KT 9999 BKN040 TEMPO 2910/2915 30006KT

Weather observations and forecasts of more than 4000 airports (METAR and TAF reports).

The available stations are represented by yellow and red dots on the map.

Hover mouse over dot to see the name of the station.

Then click to see weather observations and forecasts.

To change the map : click on the green buttons with a black cross to zoom in, on the green button with a dash to zoom out, or on the green arrows for adjacent maps.


METAR-TAF: